sensor_id;sensor_type;location;lat;lon;timestamp;P1;durP1;ratioP1;P2;durP2;ratioP2
19364;SDS011;9818;48.382;10.850;2022-08-14T04:38:37;5.10;;;4.60;;
19364;SDS011;9818;48.382;10.850;2022-08-14T04:41:22;5.07;;;4.37;;
19364;SDS011;9818;48.382;10.850;2022-08-14T04:44:12;6.00;;;4.20;;
19364;SDS011;9818;48.382;10.850;2022-08-14T04:46:42;5.23;;;4.67;;
19364;SDS011;9818;48.382;10.850;2022-08-14T04:49:32;4.43;;;4.03;;
19364;SDS011;9818;48.382;10.850;2022-08-14T04:52:00;4.37;;;3.97;;
19364;SDS011;9818;48.382;10.850;2022-08-14T04:54:31;5.27;;;4.77;;
19364;SDS011;9818;48.382;10.850;2022-08-14T04:57:03;4.90;;;4.40;;
19364;SDS011;9818;48.382;10.850;2022-08-14T05:36:54;3.87;;;3.50;;
19364;SDS011;9818;48.382;10.850;2022-08-14T05:39:23;3.97;;;3.57;;
19364;SDS011;9818;48.382;10.850;2022-08-14T05:41:51;4.20;;;3.80;;
19364;SDS011;9818;48.382;10.850;2022-08-14T05:44:21;4.20;;;3.80;;
19364;SDS011;9818;48.382;10.850;2022-08-14T05:46:52;4.80;;;3.67;;
19364;SDS011;9818;48.382;10.850;2022-08-14T05:49:21;3.70;;;3.40;;
19364;SDS011;9818;48.382;10.850;2022-08-14T05:51:49;3.80;;;3.40;;
19364;SDS011;9818;48.382;10.850;2022-08-14T05:54:18;4.47;;;3.77;;
19364;SDS011;9818;48.382;10.850;2022-08-14T05:56:47;4.20;;;3.40;;
19364;SDS011;9818;48.382;10.850;2022-08-14T05:59:16;3.70;;;3.27;;
19364;SDS011;9818;48.382;10.850;2022-08-14T06:01:44;3.83;;;3.50;;
19364;SDS011;9818;48.382;10.850;2022-08-14T06:04:16;3.43;;;3.13;;
19364;SDS011;9818;48.382;10.850;2022-08-14T06:06:45;3.30;;;3.00;;
19364;SDS011;9818;48.382;10.850;2022-08-14T06:09:14;3.60;;;3.30;;
19364;SDS011;9818;48.382;10.850;2022-08-14T06:46:30;3.60;;;3.30;;
19364;SDS011;9818;48.382;10.850;2022-08-14T06:48:59;3.50;;;3.20;;
19364;SDS011;9818;48.382;10.850;2022-08-14T07:09:14;5.77;;;3.10;;
19364;SDS011;9818;48.382;10.850;2022-08-14T07:11:46;2.92;;;2.70;;
19364;SDS011;9818;48.382;10.850;2022-08-14T07:14:14;3.25;;;2.70;;
19364;SDS011;9818;48.382;10.850;2022-08-14T07:16:43;5.32;;;3.00;;
19364;SDS011;9818;48.382;10.850;2022-08-14T07:41:38;3.28;;;2.97;;
19364;SDS011;9818;48.382;10.850;2022-08-14T07:44:15;2.97;;;2.67;;
19364;SDS011;9818;48.382;10.850;2022-08-14T07:46:49;3.13;;;2.90;;
19364;SDS011;9818;48.382;10.850;2022-08-14T07:49:19;2.58;;;2.38;;
19364;SDS011;9818;48.382;10.850;2022-08-14T07:51:49;3.00;;;2.80;;
19364;SDS011;9818;48.382;10.850;2022-08-14T07:59:18;2.90;;;2.60;;
19364;SDS011;9818;48.382;10.850;2022-08-14T08:01:48;4.93;;;2.50;;
19364;SDS011;9818;48.382;10.850;2022-08-14T08:04:20;3.90;;;2.35;;
19364;SDS011;9818;48.382;10.850;2022-08-14T08:06:50;2.63;;;2.42;;
19364;SDS011;9818;48.382;10.850;2022-08-14T08:09:20;3.05;;;2.40;;
19364;SDS011;9818;48.382;10.850;2022-08-14T08:11:54;3.20;;;2.20;;
19364;SDS011;9818;48.382;10.850;2022-08-14T08:14:25;3.10;;;2.80;;
19364;SDS011;9818;48.382;10.850;2022-08-14T08:16:55;3.90;;;2.60;;
19364;SDS011;9818;48.382;10.850;2022-08-14T08:29:18;2.42;;;2.22;;
19364;SDS011;9818;48.382;10.850;2022-08-14T08:31:51;3.90;;;2.33;;
19364;SDS011;9818;48.382;10.850;2022-08-14T08:34:20;2.72;;;2.40;;
19364;SDS011;9818;48.382;10.850;2022-08-14T08:36:49;2.40;;;2.20;;
19364;SDS011;9818;48.382;10.850;2022-08-14T08:39:18;2.15;;;1.95;;
19364;SDS011;9818;48.382;10.850;2022-08-14T08:41:49;2.60;;;2.40;;
19364;SDS011;9818;48.382;10.850;2022-08-14T08:44:18;2.67;;;2.30;;
19364;SDS011;9818;48.382;10.850;2022-08-14T08:46:55;2.55;;;2.35;;
19364;SDS011;9818;48.382;10.850;2022-08-14T08:49:36;2.72;;;1.95;;
19364;SDS011;9818;48.382;10.850;2022-08-14T08:52:06;3.88;;;2.30;;
19364;SDS011;9818;48.382;10.850;2022-08-14T08:54:35;2.80;;;2.50;;
19364;SDS011;9818;48.382;10.850;2022-08-14T08:57:09;2.60;;;2.40;;
19364;SDS011;9818;48.382;10.850;2022-08-14T08:59:39;2.92;;;2.42;;
19364;SDS011;9818;48.382;10.850;2022-08-14T09:02:11;2.78;;;2.25;;
19364;SDS011;9818;48.382;10.850;2022-08-14T09:04:42;2.30;;;2.10;;
19364;SDS011;9818;48.382;10.850;2022-08-14T09:07:11;3.88;;;2.13;;
19364;SDS011;9818;48.382;10.850;2022-08-14T09:09:40;3.58;;;2.28;;
19364;SDS011;9818;48.382;10.850;2022-08-14T09:12:18;2.20;;;2.05;;
19364;SDS011;9818;48.382;10.850;2022-08-14T09:14:47;2.78;;;2.47;;
19364;SDS011;9818;48.382;10.850;2022-08-14T09:17:20;2.50;;;2.30;;
19364;SDS011;9818;48.382;10.850;2022-08-14T09:19:49;2.90;;;2.38;;
19364;SDS011;9818;48.382;10.850;2022-08-14T09:22:18;3.75;;;2.22;;
19364;SDS011;9818;48.382;10.850;2022-08-14T09:24:49;2.50;;;2.30;;
19364;SDS011;9818;48.382;10.850;2022-08-14T09:27:19;2.78;;;2.35;;
19364;SDS011;9818;48.382;10.850;2022-08-14T09:29:48;4.45;;;2.00;;
19364;SDS011;9818;48.382;10.850;2022-08-14T09:32:22;2.40;;;2.20;;
19364;SDS011;9818;48.382;10.850;2022-08-14T09:35:02;2.80;;;2.60;;
19364;SDS011;9818;48.382;10.850;2022-08-14T09:37:39;2.40;;;2.20;;
19364;SDS011;9818;48.382;10.850;2022-08-14T09:40:18;2.35;;;2.15;;
19364;SDS011;9818;48.382;10.850;2022-08-14T09:42:58;3.10;;;2.78;;
19364;SDS011;9818;48.382;10.850;2022-08-14T09:45:35;3.15;;;2.35;;
19364;SDS011;9818;48.382;10.850;2022-08-14T09:48:17;3.25;;;2.97;;
19364;SDS011;9818;48.382;10.850;2022-08-14T09:50:48;3.10;;;2.65;;
19364;SDS011;9818;48.382;10.850;2022-08-14T09:53:32;4.53;;;2.58;;
19364;SDS011;9818;48.382;10.850;2022-08-14T09:56:08;4.30;;;2.40;;
19364;SDS011;9818;48.382;10.850;2022-08-14T09:58:38;2.10;;;2.00;;
19364;SDS011;9818;48.382;10.850;2022-08-14T10:01:09;2.92;;;2.10;;
19364;SDS011;9818;48.382;10.850;2022-08-14T10:03:48;2.75;;;2.55;;
19364;SDS011;9818;48.382;10.850;2022-08-14T10:06:20;3.05;;;2.85;;
19364;SDS011;9818;48.382;10.850;2022-08-14T10:08:52;2.88;;;2.17;;
19364;SDS011;9818;48.382;10.850;2022-08-14T10:11:27;3.83;;;2.60;;
19364;SDS011;9818;48.382;10.850;2022-08-14T10:14:10;5.13;;;2.40;;
19364;SDS011;9818;48.382;10.850;2022-08-14T10:16:42;3.15;;;2.90;;
19364;SDS011;9818;48.382;10.850;2022-08-14T10:19:14;4.45;;;2.70;;
19364;SDS011;9818;48.382;10.850;2022-08-14T10:21:55;2.17;;;2.08;;
19364;SDS011;9818;48.382;10.850;2022-08-14T10:24:26;2.70;;;2.50;;
19364;SDS011;9818;48.382;10.850;2022-08-14T10:26:57;3.00;;;2.13;;
19364;SDS011;9818;48.382;10.850;2022-08-14T10:29:31;3.00;;;2.67;;
19364;SDS011;9818;48.382;10.850;2022-08-14T10:32:02;4.25;;;2.83;;
19364;SDS011;9818;48.382;10.850;2022-08-14T10:34:35;3.58;;;2.58;;
19364;SDS011;9818;48.382;10.850;2022-08-14T10:37:06;2.88;;;2.08;;
19364;SDS011;9818;48.382;10.850;2022-08-14T10:39:36;2.40;;;2.20;;
19364;SDS011;9818;48.382;10.850;2022-08-14T10:42:07;2.47;;;2.28;;
19364;SDS011;9818;48.382;10.850;2022-08-14T10:44:38;2.55;;;2.30;;
19364;SDS011;9818;48.382;10.850;2022-08-14T10:47:12;3.65;;;2.85;;
19364;SDS011;9818;48.382;10.850;2022-08-14T10:49:55;2.53;;;2.33;;
19364;SDS011;9818;48.382;10.850;2022-08-14T10:52:26;4.68;;;2.28;;
19364;SDS011;9818;48.382;10.850;2022-08-14T10:55:04;2.72;;;2.47;;
19364;SDS011;9818;48.382;10.850;2022-08-14T11:08:05;2.53;;;2.33;;
